sensor_id;sensor_type;location;lat;lon;timestamp;pressure;altitude;pressure_sealevel;temperature;humidity
29825;BME280;16713;52.916;12.834;2023-01-29T00:02:19;102056.28;;;1.05;68.04
29825;BME280;16713;52.916;12.834;2023-01-29T00:04:46;102051.19;;;0.77;67.94
29825;BME280;16713;52.916;12.834;2023-01-29T00:07:12;102052.03;;;0.82;68.55
29825;BME280;16713;52.916;12.834;2023-01-29T00:09:39;102060.16;;;0.82;68.74
29825;BME280;16713;52.916;12.834;2023-01-29T00:12:05;102049.03;;;0.79;68.19
29825;BME280;16713;52.916;12.834;2023-01-29T00:14:34;102039.69;;;0.91;68.04
29825;BME280;16713;52.916;12.834;2023-01-29T00:17:00;102044.25;;;0.86;67.93
29825;BME280;16713;52.916;12.834;2023-01-29T00:19:27;102038.59;;;0.87;69.41
29825;BME280;16713;52.916;12.834;2023-01-29T00:21:53;102044.84;;;0.93;67.46
29825;BME280;16713;52.916;12.834;2023-01-29T00:24:19;102037.16;;;0.80;68.88
29825;BME280;16713;52.916;12.834;2023-01-29T00:26:46;102039.66;;;0.86;68.45
29825;BME280;16713;52.916;12.834;2023-01-29T00:29:15;102034.50;;;0.85;68.17
29825;BME280;16713;52.916;12.834;2023-01-29T00:31:43;102040.41;;;1.13;67.83
29825;BME280;16713;52.916;12.834;2023-01-29T00:34:10;102034.84;;;0.93;68.94
29825;BME280;16713;52.916;12.834;2023-01-29T00:36:36;102036.69;;;0.88;69.48
29825;BME280;16713;52.916;12.834;2023-01-29T00:39:02;102035.16;;;0.97;68.49
29825;BME280;16713;52.916;12.834;2023-01-29T00:41:35;102035.44;;;1.00;69.53
29825;BME280;16713;52.916;12.834;2023-01-29T00:44:20;102031.31;;;1.29;69.03
29825;BME280;16713;52.916;12.834;2023-01-29T00:47:05;102039.78;;;1.01;68.16
29825;BME280;16713;52.916;12.834;2023-01-29T00:49:51;102047.00;;;1.27;67.67
29825;BME280;16713;52.916;12.834;2023-01-29T00:52:17;102044.03;;;1.29;67.96
29825;BME280;16713;52.916;12.834;2023-01-29T00:54:50;102039.78;;;1.01;69.01
29825;BME280;16713;52.916;12.834;2023-01-29T00:57:16;102048.50;;;1.13;67.97
29825;BME280;16713;52.916;12.834;2023-01-29T00:59:42;102039.88;;;1.16;68.97
29825;BME280;16713;52.916;12.834;2023-01-29T01:02:09;102034.00;;;1.24;67.07
29825;BME280;16713;52.916;12.834;2023-01-29T01:04:54;102033.63;;;1.47;67.50
29825;BME280;16713;52.916;12.834;2023-01-29T01:07:20;102034.25;;;1.18;67.32
29825;BME280;16713;52.916;12.834;2023-01-29T01:09:46;102049.03;;;1.10;68.75
29825;BME280;16713;52.916;12.834;2023-01-29T01:12:31;102047.38;;;1.04;68.72
29825;BME280;16713;52.916;12.834;2023-01-29T01:14:58;102036.25;;;1.01;69.50
29825;BME280;16713;52.916;12.834;2023-01-29T01:17:24;102039.22;;;0.99;69.77
29825;BME280;16713;52.916;12.834;2023-01-29T01:19:50;102034.63;;;1.00;70.24
29825;BME280;16713;52.916;12.834;2023-01-29T01:22:17;102035.44;;;1.37;68.90
29825;BME280;16713;52.916;12.834;2023-01-29T01:24:43;102026.09;;;1.13;68.49
29825;BME280;16713;52.916;12.834;2023-01-29T01:27:09;102031.19;;;1.09;69.54
29825;BME280;16713;52.916;12.834;2023-01-29T01:29:36;102019.47;;;0.94;69.97
29825;BME280;16713;52.916;12.834;2023-01-29T01:32:02;102017.59;;;0.99;70.00
29825;BME280;16713;52.916;12.834;2023-01-29T01:34:29;102016.53;;;1.00;70.79
29825;BME280;16713;52.916;12.834;2023-01-29T01:36:55;102007.84;;;0.93;70.80
29825;BME280;16713;52.916;12.834;2023-01-29T01:39:22;102008.91;;;0.92;70.01
29825;BME280;16713;52.916;12.834;2023-01-29T01:41:49;102008.41;;;0.95;69.29
29825;BME280;16713;52.916;12.834;2023-01-29T01:47:00;101985.97;;;0.95;69.50
29825;BME280;16713;52.916;12.834;2023-01-29T01:49:27;101984.69;;;1.02;69.96
29825;BME280;16713;52.916;12.834;2023-01-29T01:51:53;101983.66;;;1.13;69.58
29825;BME280;16713;52.916;12.834;2023-01-29T01:54:22;101972.75;;;0.93;69.66
29825;BME280;16713;52.916;12.834;2023-01-29T01:56:52;101982.06;;;1.12;69.29
29825;BME280;16713;52.916;12.834;2023-01-29T01:59:20;101979.28;;;1.02;69.77
29825;BME280;16713;52.916;12.834;2023-01-29T02:01:48;101983.25;;;1.31;68.65
29825;BME280;16713;52.916;12.834;2023-01-29T02:04:17;101973.16;;;1.17;70.03
29825;BME280;16713;52.916;12.834;2023-01-29T02:07:03;101971.34;;;0.91;69.96
29825;BME280;16713;52.916;12.834;2023-01-29T02:09:51;101966.78;;;0.91;70.70
29825;BME280;16713;52.916;12.834;2023-01-29T02:12:19;101973.84;;;0.97;70.68
29825;BME280;16713;52.916;12.834;2023-01-29T02:14:45;101977.50;;;1.23;69.29
29825;BME280;16713;52.916;12.834;2023-01-29T02:17:13;101976.88;;;1.06;70.34
29825;BME280;16713;52.916;12.834;2023-01-29T02:24:49;101973.38;;;1.10;71.16
29825;BME280;16713;52.916;12.834;2023-01-29T02:27:32;101979.44;;;1.22;70.50
29825;BME280;16713;52.916;12.834;2023-01-29T02:30:25;101974.97;;;1.01;71.25
29825;BME280;16713;52.916;12.834;2023-01-29T02:33:00;101971.84;;;1.19;70.52
29825;BME280;16713;52.916;12.834;2023-01-29T02:40:45;101979.75;;;0.94;71.38
29825;BME280;16713;52.916;12.834;2023-01-29T02:43:20;101981.78;;;1.14;72.10
29825;BME280;16713;52.916;12.834;2023-01-29T02:45:49;101979.66;;;1.16;72.52
29825;BME280;16713;52.916;12.834;2023-01-29T02:48:19;101979.19;;;1.29;71.16
29825;BME280;16713;52.916;12.834;2023-01-29T02:50:48;101977.19;;;1.09;71.95
29825;BME280;16713;52.916;12.834;2023-01-29T02:53:31;101976.50;;;1.29;72.05
29825;BME280;16713;52.916;12.834;2023-01-29T02:56:01;101974.81;;;1.18;73.25
29825;BME280;16713;52.916;12.834;2023-01-29T03:00:55;101969.28;;;1.03;74.10
29825;BME280;16713;52.916;12.834;2023-01-29T03:03:25;101962.28;;;1.02;75.35
29825;BME280;16713;52.916;12.834;2023-01-29T03:05:59;101962.59;;;1.10;74.10
29825;BME280;16713;52.916;12.834;2023-01-29T03:08:31;101951.50;;;1.12;73.96
29825;BME280;16713;52.916;12.834;2023-01-29T03:11:09;101953.16;;;1.13;74.83
29825;BME280;16713;52.916;12.834;2023-01-29T03:13:40;101941.47;;;1.02;75.59
29825;BME280;16713;52.916;12.834;2023-01-29T03:16:19;101935.63;;;1.20;75.95
29825;BME280;16713;52.916;12.834;2023-01-29T03:18:52;101937.34;;;1.36;75.41
29825;BME280;16713;52.916;12.834;2023-01-29T03:21:22;101943.25;;;1.28;76.17
29825;BME280;16713;52.916;12.834;2023-01-29T03:24:09;101938.06;;;1.22;75.34
29825;BME280;16713;52.916;12.834;2023-01-29T03:26:55;101928.28;;;1.11;75.06
29825;BME280;16713;52.916;12.834;2023-01-29T03:29:41;101924.34;;;1.33;76.54
29825;BME280;16713;52.916;12.834;2023-01-29T03:32:27;101907.50;;;1.11;75.71
29825;BME280;16713;52.916;12.834;2023-01-29T03:34:59;101906.94;;;1.09;75.70
29825;BME280;16713;52.916;12.834;2023-01-29T03:39:54;101893.97;;;1.06;77.27
29825;BME280;16713;52.916;12.834;2023-01-29T03:47:58;101889.28;;;1.53;76.50
29825;BME280;16713;52.916;12.834;2023-01-29T03:50:33;101883.78;;;1.28;76.10
29825;BME280;16713;52.916;12.834;2023-01-29T03:55:41;101872.94;;;1.18;77.74
29825;BME280;16713;52.916;12.834;2023-01-29T04:00:37;101871.91;;;1.29;75.57
29825;BME280;16713;52.916;12.834;2023-01-29T04:05:36;101856.75;;;1.23;77.41
29825;BME280;16713;52.916;12.834;2023-01-29T04:08:05;101844.84;;;1.24;76.44
29825;BME280;16713;52.916;12.834;2023-01-29T04:10:33;101847.56;;;1.24;78.06
29825;BME280;16713;52.916;12.834;2023-01-29T04:13:03;101851.41;;;1.33;75.96
29825;BME280;16713;52.916;12.834;2023-01-29T04:15:31;101853.06;;;1.49;76.80
29825;BME280;16713;52.916;12.834;2023-01-29T04:17:59;101860.88;;;1.46;77.22
29825;BME280;16713;52.916;12.834;2023-01-29T04:20:26;101858.44;;;1.39;77.48
29825;BME280;16713;52.916;12.834;2023-01-29T04:22:52;101858.78;;;1.58;75.65
29825;BME280;16713;52.916;12.834;2023-01-29T04:25:23;101852.78;;;1.46;76.48
29825;BME280;16713;52.916;12.834;2023-01-29T04:33:06;101847.69;;;1.69;75.26
29825;BME280;16713;52.916;12.834;2023-01-29T04:38:37;101850.31;;;1.34;76.70
29825;BME280;16713;52.916;12.834;2023-01-29T04:41:10;101847.38;;;1.46;75.62
29825;BME280;16713;52.916;12.834;2023-01-29T04:46:30;101864.09;;;1.33;77.57
29825;BME280;16713;52.916;12.834;2023-01-29T04:51:48;101854.03;;;1.23;77.35
29825;BME280;16713;52.916;12.834;2023-01-29T04:59:32;101847.34;;;1.36;77.89
29825;BME280;16713;52.916;12.834;2023-01-29T05:02:01;101847.41;;;1.51;77.57
29825;BME280;16713;52.916;12.834;2023-01-29T05:04:29;101847.06;;;1.37;75.75
29825;BME280;16713;52.916;12.834;2023-01-29T05:07:00;101846.00;;;1.33;76.86
29825;BME280;16713;52.916;12.834;2023-01-29T05:09:27;101853.06;;;1.44;76.98
29825;BME280;16713;52.916;12.834;2023-01-29T05:11:54;101854.09;;;1.33;76.68
29825;BME280;16713;52.916;12.834;2023-01-29T05:14:20;101852.44;;;1.32;76.90
29825;BME280;16713;52.916;12.834;2023-01-29T05:16:50;101857.97;;;1.57;76.67
29825;BME280;16713;52.916;12.834;2023-01-29T05:19:17;101859.31;;;1.65;76.96
29825;BME280;16713;52.916;12.834;2023-01-29T05:21:44;101857.09;;;1.47;76.13
29825;BME280;16713;52.916;12.834;2023-01-29T05:24:21;101870.38;;;1.53;76.47
29825;BME280;16713;52.916;12.834;2023-01-29T05:26:49;101865.75;;;1.44;76.26
29825;BME280;16713;52.916;12.834;2023-01-29T05:29:34;101857.44;;;1.65;76.73
29825;BME280;16713;52.916;12.834;2023-01-29T05:32:00;101859.88;;;1.67;76.37
29825;BME280;16713;52.916;12.834;2023-01-29T05:34:27;101852.00;;;1.60;76.49
29825;BME280;16713;52.916;12.834;2023-01-29T05:36:53;101858.25;;;1.76;77.29
29825;BME280;16713;52.916;12.834;2023-01-29T05:39:20;101855.53;;;1.56;77.24
29825;BME280;16713;52.916;12.834;2023-01-29T05:41:46;101848.78;;;1.63;76.27
29825;BME280;16713;52.916;12.834;2023-01-29T05:44:12;101851.97;;;1.50;77.03
29825;BME280;16713;52.916;12.834;2023-01-29T05:46:39;101857.09;;;1.42;78.11
29825;BME280;16713;52.916;12.834;2023-01-29T05:49:05;101864.16;;;1.63;77.46
29825;BME280;16713;52.916;12.834;2023-01-29T05:51:31;101869.59;;;1.73;76.62
29825;BME280;16713;52.916;12.834;2023-01-29T05:53:58;101876.91;;;1.77;75.93
29825;BME280;16713;52.916;12.834;2023-01-29T05:56:24;101868.28;;;1.75;76.02
29825;BME280;16713;52.916;12.834;2023-01-29T05:58:50;101865.56;;;1.80;75.64
29825;BME280;16713;52.916;12.834;2023-01-29T06:01:18;101860.69;;;1.77;76.71
29825;BME280;16713;52.916;12.834;2023-01-29T06:03:45;101860.09;;;1.50;77.30
29825;BME280;16713;52.916;12.834;2023-01-29T06:06:11;101858.72;;;1.43;77.55
29825;BME280;16713;52.916;12.834;2023-01-29T06:08:37;101857.66;;;1.49;76.56
29825;BME280;16713;52.916;12.834;2023-01-29T06:11:06;101850.13;;;1.56;77.28
29825;BME280;16713;52.916;12.834;2023-01-29T06:13:32;101842.78;;;1.46;76.99
29825;BME280;16713;52.916;12.834;2023-01-29T06:15:58;101837.97;;;1.63;77.91
29825;BME280;16713;52.916;12.834;2023-01-29T06:18:25;101829.00;;;1.48;77.66
29825;BME280;16713;52.916;12.834;2023-01-29T06:20:51;101839.06;;;1.67;77.41
29825;BME280;16713;52.916;12.834;2023-01-29T06:23:17;101848.47;;;1.55;76.97
29825;BME280;16713;52.916;12.834;2023-01-29T06:25:44;101851.97;;;1.45;77.78
29825;BME280;16713;52.916;12.834;2023-01-29T06:28:10;101850.66;;;1.63;77.37
29825;BME280;16713;52.916;12.834;2023-01-29T06:30:36;101851.19;;;1.55;76.49
29825;BME280;16713;52.916;12.834;2023-01-29T06:33:03;101852.53;;;1.52;77.12
29825;BME280;16713;52.916;12.834;2023-01-29T06:35:29;101848.19;;;1.56;77.04
29825;BME280;16713;52.916;12.834;2023-01-29T06:37:55;101850.38;;;1.64;78.39
29825;BME280;16713;52.916;12.834;2023-01-29T06:40:22;101846.09;;;1.73;76.95
29825;BME280;16713;52.916;12.834;2023-01-29T06:42:48;101841.50;;;1.69;78.09
29825;BME280;16713;52.916;12.834;2023-01-29T06:45:14;101836.03;;;1.49;77.02
29825;BME280;16713;52.916;12.834;2023-01-29T06:47:40;101834.41;;;1.48;77.37
29825;BME280;16713;52.916;12.834;2023-01-29T06:50:07;101836.03;;;1.49;78.62
29825;BME280;16713;52.916;12.834;2023-01-29T06:52:33;101819.00;;;1.43;78.10
29825;BME280;16713;52.916;12.834;2023-01-29T06:55:00;101837.69;;;1.70;77.39
29825;BME280;16713;52.916;12.834;2023-01-29T06:57:27;101846.91;;;1.74;76.67
29825;BME280;16713;52.916;12.834;2023-01-29T06:59:54;101834.44;;;1.53;78.02
29825;BME280;16713;52.916;12.834;2023-01-29T07:02:21;101851.50;;;1.68;78.04
29825;BME280;16713;52.916;12.834;2023-01-29T07:04:47;101863.16;;;1.74;76.10
29825;BME280;16713;52.916;12.834;2023-01-29T07:07:13;101858.25;;;1.66;78.05
29825;BME280;16713;52.916;12.834;2023-01-29T07:09:40;101854.22;;;1.93;76.57
29825;BME280;16713;52.916;12.834;2023-01-29T07:12:07;101860.94;;;1.71;76.90
29825;BME280;16713;52.916;12.834;2023-01-29T07:14:33;101866.66;;;1.79;76.97
29825;BME280;16713;52.916;12.834;2023-01-29T07:17:00;101846.34;;;1.67;76.72
29825;BME280;16713;52.916;12.834;2023-01-29T07:19:26;101846.06;;;1.58;78.55
29825;BME280;16713;52.916;12.834;2023-01-29T07:21:52;101839.59;;;1.69;78.22
29825;BME280;16713;52.916;12.834;2023-01-29T07:24:19;101826.06;;;1.64;77.35
29825;BME280;16713;52.916;12.834;2023-01-29T07:26:45;101808.78;;;1.70;77.93
29825;BME280;16713;52.916;12.834;2023-01-29T07:29:12;101817.97;;;1.59;77.98
29825;BME280;16713;52.916;12.834;2023-01-29T07:31:38;101821.47;;;1.65;78.25
29825;BME280;16713;52.916;12.834;2023-01-29T07:34:04;101805.22;;;1.60;78.14
29825;BME280;16713;52.916;12.834;2023-01-29T07:36:31;101800.94;;;1.69;78.44
29825;BME280;16713;52.916;12.834;2023-01-29T07:38:57;101808.50;;;1.62;77.71
29825;BME280;16713;52.916;12.834;2023-01-29T07:41:23;101818.22;;;1.68;77.97
29825;BME280;16713;52.916;12.834;2023-01-29T07:43:50;101820.13;;;1.67;77.87
29825;BME280;16713;52.916;12.834;2023-01-29T07:46:16;101807.13;;;1.69;77.59
29825;BME280;16713;52.916;12.834;2023-01-29T07:48:42;101801.22;;;1.67;78.74
29825;BME280;16713;52.916;12.834;2023-01-29T07:51:09;101800.09;;;1.63;77.96
29825;BME280;16713;52.916;12.834;2023-01-29T07:53:35;101801.47;;;1.66;77.94
29825;BME280;16713;52.916;12.834;2023-01-29T07:56:02;101800.41;;;1.77;78.17
29825;BME280;16713;52.916;12.834;2023-01-29T07:58:28;101804.72;;;1.78;79.06
29825;BME280;16713;52.916;12.834;2023-01-29T08:00:55;101817.69;;;1.81;77.83
29825;BME280;16713;52.916;12.834;2023-01-29T08:03:21;101806.91;;;1.86;77.18
29825;BME280;16713;52.916;12.834;2023-01-29T08:05:47;101804.44;;;1.74;77.97
29825;BME280;16713;52.916;12.834;2023-01-29T08:08:14;101798.56;;;2.02;78.11
29825;BME280;16713;52.916;12.834;2023-01-29T08:10:40;101803.97;;;2.08;77.96
29825;BME280;16713;52.916;12.834;2023-01-29T08:13:07;101805.28;;;2.00;77.61
29825;BME280;16713;52.916;12.834;2023-01-29T08:15:34;101808.25;;;1.98;77.51
29825;BME280;16713;52.916;12.834;2023-01-29T08:18:04;101807.19;;;1.94;77.51
29825;BME280;16713;52.916;12.834;2023-01-29T08:20:30;101814.72;;;1.82;76.87
29825;BME280;16713;52.916;12.834;2023-01-29T08:22:57;101799.59;;;1.76;77.31
29825;BME280;16713;52.916;12.834;2023-01-29T08:25:24;101797.69;;;1.77;77.62
29825;BME280;16713;52.916;12.834;2023-01-29T08:27:51;101792.56;;;1.75;78.60
29825;BME280;16713;52.916;12.834;2023-01-29T08:30:17;101797.19;;;2.15;77.32
29825;BME280;16713;52.916;12.834;2023-01-29T08:32:43;101792.59;;;2.06;77.39
29825;BME280;16713;52.916;12.834;2023-01-29T08:35:10;101793.94;;;2.13;77.64
29825;BME280;16713;52.916;12.834;2023-01-29T08:37:36;101790.41;;;2.13;76.90
29825;BME280;16713;52.916;12.834;2023-01-29T08:40:02;101790.41;;;2.18;77.99
29825;BME280;16713;52.916;12.834;2023-01-29T08:42:29;101783.94;;;2.03;77.71
29825;BME280;16713;52.916;12.834;2023-01-29T08:44:55;101781.19;;;1.88;77.44
29825;BME280;16713;52.916;12.834;2023-01-29T08:47:22;101780.69;;;2.07;78.15
29825;BME280;16713;52.916;12.834;2023-01-29T08:49:48;101780.41;;;2.03;76.42
29825;BME280;16713;52.916;12.834;2023-01-29T08:52:14;101773.88;;;1.84;77.16
29825;BME280;16713;52.916;12.834;2023-01-29T08:54:41;101765.78;;;1.99;77.80
29825;BME280;16713;52.916;12.834;2023-01-29T08:57:07;101759.28;;;1.95;77.97
29825;BME280;16713;52.916;12.834;2023-01-29T08:59:33;101771.75;;;1.91;78.08
29825;BME280;16713;52.916;12.834;2023-01-29T09:02:00;101776.06;;;1.97;79.08
29825;BME280;16713;52.916;12.834;2023-01-29T09:04:26;101776.06;;;1.92;79.00
29825;BME280;16713;52.916;12.834;2023-01-29T09:06:53;101774.44;;;2.01;78.77
29825;BME280;16713;52.916;12.834;2023-01-29T09:09:19;101777.97;;;1.91;79.29
29825;BME280;16713;52.916;12.834;2023-01-29T09:11:46;101789.91;;;2.06;78.07
29825;BME280;16713;52.916;12.834;2023-01-29T09:14:12;101789.59;;;1.97;77.70
29825;BME280;16713;52.916;12.834;2023-01-29T09:16:39;101781.47;;;1.92;78.08
29825;BME280;16713;52.916;12.834;2023-01-29T09:19:06;101775.25;;;2.01;78.79
29825;BME280;16713;52.916;12.834;2023-01-29T09:21:33;101783.13;;;2.03;77.99
29825;BME280;16713;52.916;12.834;2023-01-29T09:23:59;101784.75;;;2.14;78.03
29825;BME280;16713;52.916;12.834;2023-01-29T09:26:26;101783.94;;;2.19;77.68
29825;BME280;16713;52.916;12.834;2023-01-29T09:28:52;101789.88;;;2.21;76.99
29825;BME280;16713;52.916;12.834;2023-01-29T09:31:18;101786.63;;;2.19;77.83
29825;BME280;16713;52.916;12.834;2023-01-29T09:33:45;101779.84;;;2.41;77.01
29825;BME280;16713;52.916;12.834;2023-01-29T09:36:11;101773.06;;;2.29;76.35
29825;BME280;16713;52.916;12.834;2023-01-29T09:38:37;101775.00;;;2.28;76.95
29825;BME280;16713;52.916;12.834;2023-01-29T09:41:06;101779.03;;;2.36;77.14
29825;BME280;16713;52.916;12.834;2023-01-29T09:48:42;101781.16;;;2.49;75.79
29825;BME280;16713;52.916;12.834;2023-01-29T09:51:33;101782.19;;;2.68;76.30
29825;BME280;16713;52.916;12.834;2023-01-29T09:54:01;101776.25;;;2.66;75.10
29825;BME280;16713;52.916;12.834;2023-01-29T09:56:31;101768.16;;;2.56;76.68
29825;BME280;16713;52.916;12.834;2023-01-29T09:58:58;101777.59;;;2.73;75.46
29825;BME280;16713;52.916;12.834;2023-01-29T10:01:31;101767.31;;;2.70;74.79
29825;BME280;16713;52.916;12.834;2023-01-29T10:04:15;101774.88;;;2.73;75.84
29825;BME280;16713;52.916;12.834;2023-01-29T10:06:52;101774.03;;;2.78;74.70
29825;BME280;16713;52.916;12.834;2023-01-29T10:11:56;101756.78;;;2.64;75.64
29825;BME280;16713;52.916;12.834;2023-01-29T10:14:29;101755.66;;;2.70;74.58
29825;BME280;16713;52.916;12.834;2023-01-29T10:17:16;101750.25;;;2.70;74.63
29825;BME280;16713;52.916;12.834;2023-01-29T10:19:56;101748.84;;;2.77;75.57
29825;BME280;16713;52.916;12.834;2023-01-29T10:25:13;101750.38;;;2.98;75.44
29825;BME280;16713;52.916;12.834;2023-01-29T10:27:43;101737.94;;;2.97;74.63
29825;BME280;16713;52.916;12.834;2023-01-29T10:30:32;101733.28;;;3.03;74.49
29825;BME280;16713;52.916;12.834;2023-01-29T10:33:03;101734.38;;;3.07;74.41
29825;BME280;16713;52.916;12.834;2023-01-29T10:35:34;101724.41;;;2.97;75.59
29825;BME280;16713;52.916;12.834;2023-01-29T10:38:17;101731.63;;;3.12;74.38
29825;BME280;16713;52.916;12.834;2023-01-29T10:40:55;101727.22;;;3.21;75.39
29825;BME280;16713;52.916;12.834;2023-01-29T10:46:33;101721.78;;;3.26;74.54
29825;BME280;16713;52.916;12.834;2023-01-29T10:49:21;101700.97;;;3.16;73.84
29825;BME280;16713;52.916;12.834;2023-01-29T10:54:29;101690.88;;;3.27;73.77
29825;BME280;16713;52.916;12.834;2023-01-29T10:57:17;101697.09;;;3.27;73.92
29825;BME280;16713;52.916;12.834;2023-01-29T10:59:55;101685.03;;;3.10;74.71
29825;BME280;16713;52.916;12.834;2023-01-29T11:02:24;101679.00;;;3.18;74.70
29825;BME280;16713;52.916;12.834;2023-01-29T11:04:51;101668.91;;;3.23;73.91
29825;BME280;16713;52.916;12.834;2023-01-29T11:07:18;101657.25;;;3.28;75.03
29825;BME280;16713;52.916;12.834;2023-01-29T11:12:22;101649.41;;;3.60;71.91
29825;BME280;16713;52.916;12.834;2023-01-29T11:17:30;101659.88;;;3.38;72.58
29825;BME280;16713;52.916;12.834;2023-01-29T11:19:57;101657.69;;;3.40;72.28
29825;BME280;16713;52.916;12.834;2023-01-29T11:22:24;101641.28;;;3.26;73.25
29825;BME280;16713;52.916;12.834;2023-01-29T11:25:15;101636.47;;;3.52;72.07
29825;BME280;16713;52.916;12.834;2023-01-29T11:27:46;101631.16;;;3.37;72.36
29825;BME280;16713;52.916;12.834;2023-01-29T11:30:58;101630.50;;;3.50;71.99
29825;BME280;16713;52.916;12.834;2023-01-29T11:35:34;101638.72;;;3.40;72.20
29825;BME280;16713;52.916;12.834;2023-01-29T11:38:05;101627.00;;;3.44;72.43
29825;BME280;16713;52.916;12.834;2023-01-29T11:43:10;101622.47;;;3.35;72.67
29825;BME280;16713;52.916;12.834;2023-01-29T11:45:37;101623.59;;;3.34;72.22
29825;BME280;16713;52.916;12.834;2023-01-29T11:48:05;101622.31;;;3.55;71.78
29825;BME280;16713;52.916;12.834;2023-01-29T11:50:39;101624.00;;;3.46;70.23
29825;BME280;16713;52.916;12.834;2023-01-29T11:53:05;101612.34;;;3.51;71.83
29825;BME280;16713;52.916;12.834;2023-01-29T11:55:32;101605.66;;;3.38;71.12
29825;BME280;16713;52.916;12.834;2023-01-29T11:58:16;101599.41;;;3.42;71.82
29825;BME280;16713;52.916;12.834;2023-01-29T12:00:47;101599.16;;;3.39;71.17
29825;BME280;16713;52.916;12.834;2023-01-29T12:03:15;101592.63;;;3.40;70.45
29825;BME280;16713;52.916;12.834;2023-01-29T12:05:54;101596.56;;;3.52;71.41
29825;BME280;16713;52.916;12.834;2023-01-29T12:08:22;101594.91;;;3.57;70.94
29825;BME280;16713;52.916;12.834;2023-01-29T12:10:49;101597.06;;;3.60;71.37
29825;BME280;16713;52.916;12.834;2023-01-29T12:13:25;101596.81;;;3.56;71.41
29825;BME280;16713;52.916;12.834;2023-01-29T12:16:09;101597.28;;;3.63;71.30
29825;BME280;16713;52.916;12.834;2023-01-29T12:18:39;101592.81;;;3.77;70.90
29825;BME280;16713;52.916;12.834;2023-01-29T12:21:27;101590.38;;;3.76;70.51
29825;BME280;16713;52.916;12.834;2023-01-29T12:26:33;101592.50;;;3.79;71.20
29825;BME280;16713;52.916;12.834;2023-01-29T12:31:51;101591.59;;;3.65;70.22
29825;BME280;16713;52.916;12.834;2023-01-29T12:36:51;101582.97;;;3.58;70.23
29825;BME280;16713;52.916;12.834;2023-01-29T12:39:19;101577.53;;;3.58;71.21
29825;BME280;16713;52.916;12.834;2023-01-29T12:44:17;101587.31;;;3.59;70.37
29825;BME280;16713;52.916;12.834;2023-01-29T12:46:50;101586.09;;;3.70;70.59
29825;BME280;16713;52.916;12.834;2023-01-29T12:49:20;101590.38;;;3.76;70.76
29825;BME280;16713;52.916;12.834;2023-01-29T12:51:54;101581.03;;;3.63;70.26
29825;BME280;16713;52.916;12.834;2023-01-29T12:54:26;101575.78;;;3.43;71.08
29825;BME280;16713;52.916;12.834;2023-01-29T12:56:54;101567.06;;;3.46;71.00
29825;BME280;16713;52.916;12.834;2023-01-29T12:59:28;101566.91;;;3.37;71.56
29825;BME280;16713;52.916;12.834;2023-01-29T13:01:55;101564.16;;;3.42;70.48
29825;BME280;16713;52.916;12.834;2023-01-29T13:04:31;101562.50;;;3.41;72.40
29825;BME280;16713;52.916;12.834;2023-01-29T13:09:33;101553.38;;;3.61;72.01
29825;BME280;16713;52.916;12.834;2023-01-29T13:14:46;101551.44;;;3.38;72.05
29825;BME280;16713;52.916;12.834;2023-01-29T13:17:17;101551.28;;;3.53;71.54
29825;BME280;16713;52.916;12.834;2023-01-29T13:19:48;101548.63;;;3.48;70.98
29825;BME280;16713;52.916;12.834;2023-01-29T13:22:23;101535.94;;;3.43;72.14
29825;BME280;16713;52.916;12.834;2023-01-29T13:24:50;101547.31;;;3.45;72.76
29825;BME280;16713;52.916;12.834;2023-01-29T13:27:31;101546.19;;;3.46;72.41
29825;BME280;16713;52.916;12.834;2023-01-29T13:29:58;101535.72;;;3.35;72.37
29825;BME280;16713;52.916;12.834;2023-01-29T13:32:26;101525.09;;;3.43;73.18
29825;BME280;16713;52.916;12.834;2023-01-29T13:34:53;101524.03;;;3.39;73.32
29825;BME280;16713;52.916;12.834;2023-01-29T13:37:23;101523.09;;;3.49;72.49
29825;BME280;16713;52.916;12.834;2023-01-29T13:39:53;101511.66;;;3.28;73.70
29825;BME280;16713;52.916;12.834;2023-01-29T13:42:22;101513.19;;;3.39;73.16
29825;BME280;16713;52.916;12.834;2023-01-29T13:44:55;101514.97;;;3.49;73.14
29825;BME280;16713;52.916;12.834;2023-01-29T13:47:26;101522.09;;;3.45;72.95
29825;BME280;16713;52.916;12.834;2023-01-29T13:49:55;101512.84;;;3.46;73.02
29825;BME280;16713;52.916;12.834;2023-01-29T13:52:42;101510.53;;;3.34;73.27
29825;BME280;16713;52.916;12.834;2023-01-29T14:00:54;101499.41;;;3.36;73.25
29825;BME280;16713;52.916;12.834;2023-01-29T14:10:21;101496.06;;;3.44;72.13
29825;BME280;16713;52.916;12.834;2023-01-29T14:12:49;101491.97;;;3.46;73.04
29825;BME280;16713;52.916;12.834;2023-01-29T14:15:17;101490.16;;;3.37;72.43
29825;BME280;16713;52.916;12.834;2023-01-29T14:18:12;101491.69;;;3.48;72.35
29825;BME280;16713;52.916;12.834;2023-01-29T14:25:50;101465.09;;;3.50;72.71
29825;BME280;16713;52.916;12.834;2023-01-29T14:28:20;101464.59;;;3.19;73.44
29825;BME280;16713;52.916;12.834;2023-01-29T14:30:47;101468.19;;;3.15;73.64
29825;BME280;16713;52.916;12.834;2023-01-29T14:33:25;101461.38;;;3.17;73.21
29825;BME280;16713;52.916;12.834;2023-01-29T14:35:53;101455.31;;;3.25;73.17
29825;BME280;16713;52.916;12.834;2023-01-29T14:38:21;101456.66;;;3.28;72.54
29825;BME280;16713;52.916;12.834;2023-01-29T14:40:48;101449.66;;;3.22;73.87
29825;BME280;16713;52.916;12.834;2023-01-29T14:43:15;101450.47;;;3.22;72.73
29825;BME280;16713;52.916;12.834;2023-01-29T14:45:47;101449.28;;;3.33;73.53
29825;BME280;16713;52.916;12.834;2023-01-29T14:48:34;101443.22;;;3.18;73.82
29825;BME280;16713;52.916;12.834;2023-01-29T14:51:05;101433.44;;;3.17;73.24
29825;BME280;16713;52.916;12.834;2023-01-29T14:53:56;101433.88;;;3.29;73.06
29825;BME280;16713;52.916;12.834;2023-01-29T14:56:40;101444.81;;;3.19;74.14